Etusivu
METAR-TAF:

METAR-TAF

Lentoasemat :

Butler, Pennsylvania, Yhdysvallat

Leveyspiiri: 40-47N, Pituuspiiri: 079-57W, korkeus merenpinnasta: 380 m

Tämänhetkinen sää

Tämä raportti tehtiin 1 tunti ja 2 minuuttia sitten, kello 15.56 UTC
Tuuli 12 kn lännestä puuskistuen 18 kn:hen
Lämpötila 27°C
Kosteus 58%
Ilmanpaine 1008 hPa
Näkyvyys: 16.1 km
Hajonneita pilviä 9000 ft:n korkeudessa

METAR: KBTP 031556Z AUTO 26012G18KT 10SM BKN090 27/18 A2978 RMK AO2 SLP079 T02670183

Aika: 12:58 (16:58 UTC)


TAF: puuttuu

Säähavainnot ja -ennusteet yli 4000 lentoasemalta (METAR- ja TAF-raportit).

Käytössä olevat sääasemat on merkitty karttaan keltaisilla ja punaisilla pisteillä.

Aseta hiiri pisteen päälle nähdäksesi sääaseman nimen.

Klikkaa sitten nähdäksesi säähavainnot ja -ennusteet.

Kartan vaihtaminen: klikkaa mustalla rastilla varustettuja vihreitä pisteitä, niin voit zoomata sisään; viivalla varustettua vihreää pistettä, niin voit zoomata ulos tai vihreitä nuolia, niin pääset viereisille kartoille.


METAR-TAF: